Time;durP1;ratioP1;P1;durP2;ratioP2;P2;SDS_P1;SDS_P2;PMS_P1;PMS_P2;Temp;Humidity;BMP_temperature;BMP_pressure;BME280_temperature;BME280_humidity;BME280_pressure;Samples;Min_cycle;Max_cycle;Signal;HPM_P1;HPM_P2
2022/07/10 00:00:47;;;;;;;4.68;3.67;;;;;;;;;;4390610;32;20661;-83
2022/07/10 00:03:13;;;;;;;7.62;4.15;;;;;;;;;;4390202;32;20218;-81
2022/07/10 00:05:40;;;;;;;5.65;3.97;;;;;;;;;;4390277;32;20481;-82
2022/07/10 00:08:07;;;;;;;4.43;3.42;;;;;;;;;;4390137;32;20532;-87
2022/07/10 00:10:35;;;;;;;5.10;3.28;;;;;;;;;;4390352;32;20528;-83
2022/07/10 00:13:01;;;;;;;4.22;3.72;;;;;;;;;;4376579;32;20704;-83
2022/07/10 00:15:27;;;;;;;5.50;3.83;;;;;;;;;;4388933;32;20582;-82
2022/07/10 00:17:55;;;;;;;5.53;4.28;;;;;;;;;;4390059;32;20727;-82
2022/07/10 00:20:21;;;;;;;5.07;3.58;;;;;;;;;;4389868;32;20603;-83
2022/07/10 00:22:47;;;;;;;7.97;3.30;;;;;;;;;;4390120;32;20214;-86
2022/07/10 00:25:14;;;;;;;8.43;4.40;;;;;;;;;;4376402;32;20626;-82
2022/07/10 00:27:41;;;;;;;6.32;3.95;;;;;;;;;;4389802;32;20654;-86
2022/07/10 00:30:08;;;;;;;5.07;3.03;;;;;;;;;;4389933;32;20508;-82
2022/07/10 00:32:34;;;;;;;6.12;4.62;;;;;;;;;;4389766;32;20601;-83
2022/07/10 00:34:59;;;;;;;5.50;3.67;;;;;;;;;;4389939;32;20340;-82
2022/07/10 00:37:25;;;;;;;4.53;4.12;;;;;;;;;;4388647;32;20229;-83
2022/07/10 00:39:53;;;;;;;5.85;4.10;;;;;;;;;;4390496;32;20199;-84
2022/07/10 00:42:19;;;;;;;10.93;5.20;;;;;;;;;;4376640;32;20723;-84
2022/07/10 00:44:44;;;;;;;7.18;4.85;;;;;;;;;;4389995;32;20213;-83
2022/07/10 00:47:11;;;;;;;5.53;4.03;;;;;;;;;;4388925;32;20225;-83
2022/07/10 00:49:38;;;;;;;5.07;3.90;;;;;;;;;;4389670;32;20684;-82
2022/07/10 00:52:11;;;;;;;4.60;3.87;;;;;;;;;;4389957;32;20485;-86
2022/07/10 00:54:38;;;;;;;4.55;3.70;;;;;;;;;;4390077;32;20665;-83
2022/07/10 00:57:06;;;;;;;3.90;3.60;;;;;;;;;;4389765;32;20598;-82
2022/07/10 00:59:32;;;;;;;4.68;3.30;;;;;;;;;;4389624;32;20561;-85
2022/07/10 01:01:59;;;;;;;7.22;3.55;;;;;;;;;;4390264;32;20720;-84
2022/07/10 01:04:25;;;;;;;4.37;3.45;;;;;;;;;;4389067;32;20630;-86
2022/07/10 01:06:52;;;;;;;4.10;3.70;;;;;;;;;;4389717;32;20212;-84
2022/07/10 01:09:17;;;;;;;6.03;3.55;;;;;;;;;;4389268;32;20654;-83
2022/07/10 01:11:44;;;;;;;3.97;3.58;;;;;;;;;;4389512;32;20190;-83
2022/07/10 01:14:10;;;;;;;4.20;3.80;;;;;;;;;;4389335;32;20607;-83
2022/07/10 01:16:37;;;;;;;4.07;3.67;;;;;;;;;;4389284;32;20637;-87
2022/07/10 01:19:03;;;;;;;9.52;3.42;;;;;;;;;;4389294;32;20591;-83
2022/07/10 01:21:31;;;;;;;3.42;3.12;;;;;;;;;;4387656;32;20619;-82
2022/07/10 01:23:57;;;;;;;4.18;3.78;;;;;;;;;;4387940;32;20555;-87
2022/07/10 01:26:23;;;;;;;4.18;3.78;;;;;;;;;;4389188;32;20541;-81
2022/07/10 01:28:50;;;;;;;6.50;3.75;;;;;;;;;;4389322;32;20616;-83
2022/07/10 01:31:20;;;;;;;6.72;4.10;;;;;;;;;;4389112;32;20511;-86
2022/07/10 01:33:46;;;;;;;9.23;4.60;;;;;;;;;;4387952;32;20627;-87
2022/07/10 01:36:12;;;;;;;11.00;4.60;;;;;;;;;;4369384;32;20496;-82
2022/07/10 01:38:40;;;;;;;7.93;4.82;;;;;;;;;;4389338;32;20645;-82
2022/07/10 01:41:09;;;;;;;7.00;4.30;;;;;;;;;;4388889;32;20626;-81
2022/07/10 01:43:36;;;;;;;8.25;4.95;;;;;;;;;;4389140;32;20588;-87
2022/07/10 01:46:03;;;;;;;11.55;4.62;;;;;;;;;;4387723;32;20597;-84
2022/07/10 01:48:30;;;;;;;5.72;4.95;;;;;;;;;;4388865;32;20677;-83
2022/07/10 01:50:56;;;;;;;6.10;4.55;;;;;;;;;;4387854;32;20544;-83
2022/07/10 01:53:22;;;;;;;6.97;4.90;;;;;;;;;;4389114;32;20555;-82
2022/07/10 01:55:48;;;;;;;10.55;5.40;;;;;;;;;;4389080;32;20364;-87
2022/07/10 01:58:14;;;;;;;7.00;4.40;;;;;;;;;;4389310;32;20186;-82
2022/07/10 02:00:39;;;;;;;9.43;4.75;;;;;;;;;;4388961;32;20218;-86
2022/07/10 02:05:50;;;;;;;9.93;5.32;;;;;;;;;;4389013;32;20236;-82
2022/07/10 02:08:15;;;;;;;11.02;5.12;;;;;;;;;;4387615;32;20218;-84
2022/07/10 02:10:41;;;;;;;9.05;6.00;;;;;;;;;;4388908;32;20222;-83
2022/07/10 02:13:07;;;;;;;12.77;5.37;;;;;;;;;;4375124;32;20226;-84
2022/07/10 02:15:33;;;;;;;8.75;5.65;;;;;;;;;;4389837;32;20580;-83
2022/07/10 02:17:59;;;;;;;9.23;4.90;;;;;;;;;;4391961;32;20587;-82
2022/07/10 02:20:25;;;;;;;6.85;4.78;;;;;;;;;;4391737;32;20743;-86
2022/07/10 02:22:51;;;;;;;8.30;5.10;;;;;;;;;;4391754;32;20492;-82
2022/07/10 02:25:17;;;;;;;9.98;4.93;;;;;;;;;;4391512;32;20296;-82
2022/07/10 02:27:43;;;;;;;5.70;4.97;;;;;;;;;;4391654;32;20559;-82
2022/07/10 02:30:09;;;;;;;7.22;5.72;;;;;;;;;;4391595;32;20335;-86
2022/07/10 02:32:35;;;;;;;12.37;5.72;;;;;;;;;;4390598;32;20592;-83
2022/07/10 02:35:01;;;;;;;6.12;4.95;;;;;;;;;;4391707;32;20247;-82
2022/07/10 02:37:26;;;;;;;8.70;6.62;;;;;;;;;;4391505;32;20206;-81
2022/07/10 02:39:52;;;;;;;10.23;7.28;;;;;;;;;;4391444;32;20259;-82
2022/07/10 02:42:19;;;;;;;8.77;7.30;;;;;;;;;;4391568;32;20306;-82
2022/07/10 02:44:45;;;;;;;9.85;6.82;;;;;;;;;;4391329;32;20550;-82
2022/07/10 02:47:11;;;;;;;6.75;5.80;;;;;;;;;;4391425;32;20206;-82
2022/07/10 02:49:37;;;;;;;6.70;5.45;;;;;;;;;;4391412;32;20221;-82
2022/07/10 02:52:03;;;;;;;13.62;6.47;;;;;;;;;;4391312;32;20220;-82
2022/07/10 02:54:29;;;;;;;8.05;5.78;;;;;;;;;;4391466;32;20692;-86
2022/07/10 02:56:55;;;;;;;7.72;5.68;;;;;;;;;;4377924;32;20532;-81
2022/07/10 02:59:21;;;;;;;14.57;6.57;;;;;;;;;;4391258;32;20244;-85
2022/07/10 03:01:47;;;;;;;6.55;5.40;;;;;;;;;;4389948;32;20236;-85
2022/07/10 03:04:13;;;;;;;9.63;5.87;;;;;;;;;;4391143;32;20290;-83
2022/07/10 03:06:40;;;;;;;8.40;5.80;;;;;;;;;;4377187;32;20573;-85
2022/07/10 03:09:06;;;;;;;6.07;4.87;;;;;;;;;;4377497;32;20534;-84
2022/07/10 03:11:32;;;;;;;10.07;6.60;;;;;;;;;;4390894;32;20614;-83
2022/07/10 03:13:58;;;;;;;12.88;8.27;;;;;;;;;;4390912;32;20314;-83
2022/07/10 03:16:24;;;;;;;34.08;19.75;;;;;;;;;;4389459;32;20257;-83
2022/07/10 03:18:50;;;;;;;23.58;16.92;;;;;;;;;;4390900;32;20221;-82
2022/07/10 03:21:15;;;;;;;23.17;15.73;;;;;;;;;;4389448;32;20660;-82
2022/07/10 03:23:41;;;;;;;20.20;11.93;;;;;;;;;;4390534;32;20198;-82
2022/07/10 03:26:07;;;;;;;13.68;10.15;;;;;;;;;;4390679;32;20225;-82
2022/07/10 03:28:35;;;;;;;13.48;9.10;;;;;;;;;;4390146;32;20649;-86
2022/07/10 03:31:02;;;;;;;13.07;11.00;;;;;;;;;;4390548;32;20658;-86
2022/07/10 03:33:28;;;;;;;17.40;13.32;;;;;;;;;;4390748;32;20541;-82
2022/07/10 03:35:54;;;;;;;14.07;10.45;;;;;;;;;;4390716;32;20630;-82
2022/07/10 03:38:20;;;;;;;13.85;10.05;;;;;;;;;;4390614;32;20610;-82
2022/07/10 03:40:47;;;;;;;13.48;8.77;;;;;;;;;;4390513;32;20638;-86
2022/07/10 03:43:16;;;;;;;13.10;9.15;;;;;;;;;;4390539;32;20645;-83
2022/07/10 03:45:42;;;;;;;15.68;7.75;;;;;;;;;;4389411;32;20592;-86
2022/07/10 03:48:08;;;;;;;11.23;8.13;;;;;;;;;;4390565;32;20310;-82
2022/07/10 03:50:34;;;;;;;14.00;8.05;;;;;;;;;;4390621;32;20217;-86
2022/07/10 03:52:59;;;;;;;9.90;7.75;;;;;;;;;;4376873;32;20279;-82
2022/07/10 03:55:25;;;;;;;8.93;6.87;;;;;;;;;;4390548;32;20218;-82
2022/07/10 03:57:54;;;;;;;8.48;7.22;;;;;;;;;;4390564;32;20190;-81
2022/07/10 04:00:27;;;;;;;10.38;7.78;;;;;;;;;;4390669;32;20615;-85
2022/07/10 04:02:58;;;;;;;18.35;8.32;;;;;;;;;;4390278;32;20625;-85
2022/07/10 04:05:25;;;;;;;11.20;7.85;;;;;;;;;;4390223;32;20639;-86
2022/07/10 04:07:51;;;;;;;11.50;7.70;;;;;;;;;;4376501;32;20677;-81
2022/07/10 04:10:19;;;;;;;10.80;7.10;;;;;;;;;;4376729;32;20594;-83
2022/07/10 04:12:45;;;;;;;10.82;8.18;;;;;;;;;;4390331;32;20581;-86
2022/07/10 04:15:11;;;;;;;15.55;8.48;;;;;;;;;;4390030;32;20536;-83
2022/07/10 04:17:37;;;;;;;10.35;7.50;;;;;;;;;;4390105;32;20634;-82
2022/07/10 04:20:03;;;;;;;14.05;8.38;;;;;;;;;;4390018;32;20280;-82
2022/07/10 04:22:29;;;;;;;18.42;8.00;;;;;;;;;;4390008;32;20622;-81
2022/07/10 04:24:55;;;;;;;12.25;7.03;;;;;;;;;;4390149;32;20285;-81
2022/07/10 04:27:21;;;;;;;11.32;6.57;;;;;;;;;;4390333;32;20614;-86
2022/07/10 04:29:48;;;;;;;9.00;6.57;;;;;;;;;;4389822;32;20662;-81
2022/07/10 04:32:16;;;;;;;12.32;5.70;;;;;;;;;;4376340;32;20558;-81
2022/07/10 04:34:42;;;;;;;7.22;5.47;;;;;;;;;;4389670;32;20597;-81
2022/07/10 04:37:08;;;;;;;8.05;6.10;;;;;;;;;;4389891;32;20258;-82
2022/07/10 04:39:39;;;;;;;5.68;5.00;;;;;;;;;;4388509;32;20606;-81
2022/07/10 04:42:06;;;;;;;6.55;5.87;;;;;;;;;;4376885;32;20487;-88
2022/07/10 04:44:32;;;;;;;6.22;5.30;;;;;;;;;;4389640;32;20646;-82
2022/07/10 04:46:58;;;;;;;8.57;5.62;;;;;;;;;;4389870;32;20729;-86
2022/07/10 04:49:24;;;;;;;8.25;5.75;;;;;;;;;;4389614;32;20638;-82
2022/07/10 04:51:50;;;;;;;8.60;5.87;;;;;;;;;;4375990;32;20580;-83
2022/07/10 04:54:16;;;;;;;8.23;6.20;;;;;;;;;;4388351;32;20214;-86
2022/07/10 04:56:42;;;;;;;11.45;6.20;;;;;;;;;;4389868;32;20186;-82
2022/07/10 04:59:09;;;;;;;8.00;5.43;;;;;;;;;;4389435;32;20551;-84
2022/07/10 05:01:37;;;;;;;6.03;4.78;;;;;;;;;;4389512;32;20633;-84
2022/07/10 05:04:03;;;;;;;6.00;5.37;;;;;;;;;;4363401;32;20558;-82
2022/07/10 05:06:30;;;;;;;9.73;5.70;;;;;;;;;;4389808;32;20594;-83
2022/07/10 05:08:56;;;;;;;11.55;5.85;;;;;;;;;;4376143;32;20602;-80
2022/07/10 05:11:22;;;;;;;6.40;5.47;;;;;;;;;;4389515;32;20641;-83
2022/07/10 05:13:48;;;;;;;11.55;5.90;;;;;;;;;;4389578;32;20698;-81
2022/07/10 05:16:15;;;;;;;5.65;5.05;;;;;;;;;;4389618;32;20591;-88
2022/07/10 05:18:42;;;;;;;10.57;5.07;;;;;;;;;;4389330;32;20633;-85
2022/07/10 05:21:08;;;;;;;5.85;5.25;;;;;;;;;;4389240;32;20631;-86
2022/07/10 05:23:35;;;;;;;6.40;4.87;;;;;;;;;;4389434;32;20570;-86
2022/07/10 05:26:01;;;;;;;5.97;5.10;;;;;;;;;;4375632;32;20523;-87
2022/07/10 05:28:27;;;;;;;6.18;5.05;;;;;;;;;;4389546;32;20226;-87
2022/07/10 05:30:53;;;;;;;8.02;5.28;;;;;;;;;;4375400;32;20598;-86
2022/07/10 05:33:19;;;;;;;11.95;4.65;;;;;;;;;;4389653;32;20329;-83
2022/07/10 05:35:45;;;;;;;5.80;4.93;;;;;;;;;;4389225;32;20626;-84
2022/07/10 05:38:11;;;;;;;6.03;5.12;;;;;;;;;;4389952;32;20236;-87
2022/07/10 05:40:37;;;;;;;7.40;4.70;;;;;;;;;;4389243;32;20669;-84
2022/07/10 05:43:03;;;;;;;6.78;5.68;;;;;;;;;;4376034;32;20534;-87
2022/07/10 05:45:29;;;;;;;9.55;5.50;;;;;;;;;;4388988;32;20669;-86
2022/07/10 05:47:56;;;;;;;8.02;5.03;;;;;;;;;;4388126;32;20305;-88
2022/07/10 05:50:22;;;;;;;6.12;5.40;;;;;;;;;;4390829;32;20535;-90
2022/07/10 05:52:48;;;;;;;7.18;5.15;;;;;;;;;;4393126;32;20654;-81
2022/07/10 05:55:14;;;;;;;7.60;5.62;;;;;;;;;;4394148;32;20317;-80
2022/07/10 05:57:40;;;;;;;14.93;5.57;;;;;;;;;;4393812;32;20640;-80
2022/07/10 06:00:08;;;;;;;6.47;4.97;;;;;;;;;;4392918;32;20305;-82
2022/07/10 06:02:34;;;;;;;8.23;5.10;;;;;;;;;;4394126;32;20493;-83
2022/07/10 06:05:00;;;;;;;5.78;4.72;;;;;;;;;;4393999;32;20547;-83
2022/07/10 06:07:27;;;;;;;5.62;5.07;;;;;;;;;;4380475;32;20265;-82
2022/07/10 06:09:55;;;;;;;5.65;4.97;;;;;;;;;;4394199;32;20635;-82
2022/07/10 06:12:21;;;;;;;10.57;6.03;;;;;;;;;;4394620;32;20652;-83
2022/07/10 06:14:46;;;;;;;10.35;5.50;;;;;;;;;;4394099;32;20538;-81
2022/07/10 06:17:12;;;;;;;6.72;5.47;;;;;;;;;;4380810;32;20189;-83
2022/07/10 06:19:39;;;;;;;8.32;5.30;;;;;;;;;;4392924;32;20361;-83
2022/07/10 06:24:50;;;;;;;6.15;5.18;;;;;;;;;;4394281;32;20232;-83
2022/07/10 06:27:16;;;;;;;5.37;4.65;;;;;;;;;;4393061;32;20622;-83
2022/07/10 06:29:41;;;;;;;6.07;4.47;;;;;;;;;;4393808;32;20217;-83
2022/07/10 06:32:07;;;;;;;6.50;4.90;;;;;;;;;;4393640;32;20194;-83
2022/07/10 06:34:33;;;;;;;7.65;4.72;;;;;;;;;;4393787;32;20664;-82
2022/07/10 06:36:59;;;;;;;6.28;5.18;;;;;;;;;;4394153;32;20319;-83
2022/07/10 06:39:25;;;;;;;5.62;4.20;;;;;;;;;;4394090;32;20664;-85
2022/07/10 06:41:51;;;;;;;4.50;4.10;;;;;;;;;;4393846;32;20194;-82
2022/07/10 06:44:17;;;;;;;6.20;4.00;;;;;;;;;;4394004;32;20535;-84
2022/07/10 06:47:55;;;;;;;4.95;3.60;;;;;;;;;;4393952;32;20396;-82
2022/07/10 06:49:29;;;;;;;5.20;3.67;;;;;;;;;;4382680;32;20300;-82
2022/07/10 06:51:55;;;;;;;4.95;3.40;;;;;;;;;;4393999;32;20555;-81
2022/07/10 06:54:22;;;;;;;8.02;4.12;;;;;;;;;;4393756;32;20603;-82
2022/07/10 06:56:48;;;;;;;5.43;3.97;;;;;;;;;;4380188;32;20602;-82
2022/07/10 06:59:14;;;;;;;6.90;3.25;;;;;;;;;;4393749;32;20602;-85
2022/07/10 07:01:41;;;;;;;7.93;3.60;;;;;;;;;;4391847;32;20471;-84
2022/07/10 07:04:07;;;;;;;4.70;2.58;;;;;;;;;;4391559;32;20648;-83
2022/07/10 07:06:33;;;;;;;5.22;2.85;;;;;;;;;;4390139;32;20602;-84
2022/07/10 07:08:58;;;;;;;4.87;2.95;;;;;;;;;;4391324;32;20251;-84
2022/07/10 07:11:24;;;;;;;3.10;2.60;;;;;;;;;;4391218;32;20244;-83
2022/07/10 07:13:50;;;;;;;3.95;3.30;;;;;;;;;;4391709;32;20220;-85
2022/07/10 07:16:19;;;;;;;4.78;2.83;;;;;;;;;;4391607;32;20312;-84
2022/07/10 07:18:52;;;;;;;2.40;2.20;;;;;;;;;;4391218;32;20606;-83
2022/07/10 07:24:04;;;;;;;3.55;2.47;;;;;;;;;;4391442;32;20275;-84
2022/07/10 07:26:30;;;;;;;4.18;2.50;;;;;;;;;;4391373;32;20654;-83
2022/07/10 07:28:56;;;;;;;3.30;2.17;;;;;;;;;;4391106;32;20622;-83
2022/07/10 07:31:22;;;;;;;7.55;3.05;;;;;;;;;;4391517;32;20222;-83
2022/07/10 07:33:47;;;;;;;3.45;2.25;;;;;;;;;;4391364;32;20239;-83
2022/07/10 07:36:13;;;;;;;6.18;2.72;;;;;;;;;;4391302;32;20240;-86
2022/07/10 07:38:39;;;;;;;2.42;2.22;;;;;;;;;;4377837;32;20232;-83
2022/07/10 07:41:05;;;;;;;10.50;2.30;;;;;;;;;;4391546;32;20666;-83
2022/07/10 07:43:31;;;;;;;2.65;1.75;;;;;;;;;;4390982;32;20261;-82
2022/07/10 07:45:57;;;;;;;3.40;2.42;;;;;;;;;;4390688;32;20603;-86
2022/07/10 07:48:23;;;;;;;2.80;2.10;;;;;;;;;;4391001;32;20613;-86
2022/07/10 07:50:50;;;;;;;4.37;2.35;;;;;;;;;;4390604;32;20194;-85
2022/07/10 07:53:15;;;;;;;2.75;2.22;;;;;;;;;;4390492;32;20607;-85
2022/07/10 07:55:41;;;;;;;3.33;1.95;;;;;;;;;;4390411;32;20300;-85
2022/07/10 07:58:07;;;;;;;2.50;1.83;;;;;;;;;;4390785;32;20312;-85
2022/07/10 08:00:33;;;;;;;5.22;2.50;;;;;;;;;;4389328;32;20605;-82
2022/07/10 08:03:00;;;;;;;3.37;2.15;;;;;;;;;;4390750;32;20285;-86
2022/07/10 08:05:26;;;;;;;3.83;2.60;;;;;;;;;;4377194;32;20722;-84
2022/07/10 08:07:54;;;;;;;5.22;3.70;;;;;;;;;;4390878;32;20643;-84
2022/07/10 08:10:23;;;;;;;2.70;2.08;;;;;;;;;;4390660;32;20575;-86
2022/07/10 08:12:49;;;;;;;3.78;2.70;;;;;;;;;;4389261;32;20810;-84
2022/07/10 08:15:19;;;;;;;5.37;3.12;;;;;;;;;;4390967;32;20603;-83
2022/07/10 08:17:51;;;;;;;5.53;2.33;;;;;;;;;;4390357;32;20622;-84
2022/07/10 08:20:17;;;;;;;5.72;2.22;;;;;;;;;;4390821;32;20570;-84
2022/07/10 08:22:44;;;;;;;2.78;2.25;;;;;;;;;;4390557;32;20524;-84
2022/07/10 08:25:10;;;;;;;3.83;2.37;;;;;;;;;;4390435;32;20575;-85
2022/07/10 08:27:37;;;;;;;4.43;2.60;;;;;;;;;;4390385;32;20731;-86
2022/07/10 08:30:06;;;;;;;3.58;1.83;;;;;;;;;;4390623;32;20504;-85
2022/07/10 08:32:31;;;;;;;2.83;1.92;;;;;;;;;;4389134;32;20586;-87
2022/07/10 08:34:59;;;;;;;3.55;2.85;;;;;;;;;;4391688;32;20229;-85
2022/07/10 08:37:25;;;;;;;7.43;4.78;;;;;;;;;;4394436;32;20274;-85
2022/07/10 08:39:53;;;;;;;8.02;2.35;;;;;;;;;;4397933;32;20634;-87
2022/07/10 08:42:21;;;;;;;9.02;3.58;;;;;;;;;;4400104;32;20617;-91
2022/07/10 08:44:48;;;;;;;7.80;4.78;;;;;;;;;;4394279;32;20622;-93
2022/07/10 08:47:15;;;;;;;4.03;2.35;;;;;;;;;;4381196;32;20202;-91
2022/07/10 08:49:49;;;;;;;2.05;1.90;;;;;;;;;;4392891;32;20656;-92
2022/07/10 08:52:27;;;;;;;4.55;2.30;;;;;;;;;;4396729;32;20216;-90
2022/07/10 08:54:55;;;;;;;3.83;2.40;;;;;;;;;;4435085;27;20266;-96
2022/07/10 08:57:43;;;;;;;3.58;1.85;;;;;;;;;;4434576;32;20231;-96
2022/07/10 09:00:10;;;;;;;3.05;1.90;;;;;;;;;;4387326;32;20234;-90
2022/07/10 09:02:36;;;;;;;3.65;2.47;;;;;;;;;;4406076;32;20578;-91
2022/07/10 09:05:04;;;;;;;5.93;2.20;;;;;;;;;;4402903;32;20247;-90
2022/07/10 09:07:37;;;;;;;3.92;2.42;;;;;;;;;;4410387;32;20684;-91
2022/07/10 09:10:08;;;;;;;4.97;2.15;;;;;;;;;;4405392;32;20255;-90
2022/07/10 09:12:58;;;;;;;7.00;2.30;;;;;;;;;;4405038;32;20658;-93
2022/07/10 09:15:34;;;;;;;6.00;3.05;;;;;;;;;;4405096;32;20668;-93
2022/07/10 09:18:07;;;;;;;3.65;2.28;;;;;;;;;;4403894;32;20282;-92
2022/07/10 09:20:34;;;;;;;2.28;1.70;;;;;;;;;;4404191;32;20679;-93
2022/07/10 09:23:22;;;;;;;4.78;2.45;;;;;;;;;;4378665;32;20570;-90
2022/07/10 09:25:50;;;;;;;3.05;1.77;;;;;;;;;;4403422;32;20531;-90
2022/07/10 09:28:19;;;;;;;2.30;2.10;;;;;;;;;;4391274;32;20582;-92
2022/07/10 09:30:45;;;;;;;3.03;2.17;;;;;;;;;;4391520;32;20629;-90
2022/07/10 09:33:15;;;;;;;5.62;1.83;;;;;;;;;;4390952;32;20575;-87
2022/07/10 09:36:05;;;;;;;2.67;1.75;;;;;;;;;;4405840;32;20514;-88
2022/07/10 09:38:42;;;;;;;2.67;1.70;;;;;;;;;;4393980;32;20597;-90
2022/07/10 09:41:24;;;;;;;5.45;2.15;;;;;;;;;;4405132;32;20496;-89
2022/07/10 09:43:52;;;;;;;1.70;1.27;;;;;;;;;;4404421;32;20633;-86
2022/07/10 09:46:21;;;;;;;4.10;1.85;;;;;;;;;;4404871;32;20577;-87
2022/07/10 09:48:47;;;;;;;10.18;2.15;;;;;;;;;;4390963;32;20612;-89
2022/07/10 09:51:13;;;;;;;5.15;1.87;;;;;;;;;;4405039;32;20545;-90
2022/07/10 09:53:44;;;;;;;6.28;1.90;;;;;;;;;;4404853;32;20221;-88
2022/07/10 09:56:12;;;;;;;7.45;1.98;;;;;;;;;;4404861;32;20593;-85
2022/07/10 09:58:38;;;;;;;5.20;2.35;;;;;;;;;;4403151;32;20657;-87
2022/07/10 10:01:06;;;;;;;8.35;3.28;;;;;;;;;;4404804;32;20652;-86
2022/07/10 10:03:37;;;;;;;5.55;3.33;;;;;;;;;;4404243;32;20678;-87
2022/07/10 10:06:15;;;;;;;6.72;4.12;;;;;;;;;;4404583;32;20609;-86
2022/07/10 10:08:44;;;;;;;4.53;2.62;;;;;;;;;;4390822;32;20579;-86
2022/07/10 10:11:15;;;;;;;4.00;2.50;;;;;;;;;;4404576;32;20610;-87
2022/07/10 10:13:42;;;;;;;9.32;3.12;;;;;;;;;;4404474;32;20565;-84
2022/07/10 10:16:09;;;;;;;6.30;1.87;;;;;;;;;;4390764;32;20569;-85
2022/07/10 10:18:37;;;;;;;3.58;2.20;;;;;;;;;;4404541;32;20579;-85
2022/07/10 10:21:06;;;;;;;3.17;2.17;;;;;;;;;;4403590;32;20617;-90
2022/07/10 10:23:34;;;;;;;4.60;1.77;;;;;;;;;;4404830;32;20664;-84
2022/07/10 10:25:59;;;;;;;5.12;1.58;;;;;;;;;;4404729;32;20602;-90
2022/07/10 10:28:26;;;;;;;2.72;1.87;;;;;;;;;;4404546;32;20247;-89
2022/07/10 10:30:55;;;;;;;2.67;1.40;;;;;;;;;;4405954;32;20564;-87
2022/07/10 10:33:34;;;;;;;5.90;1.85;;;;;;;;;;4403941;32;20520;-83
2022/07/10 10:36:01;;;;;;;2.47;1.70;;;;;;;;;;4390664;32;20531;-86
2022/07/10 10:38:49;;;;;;;4.97;1.65;;;;;;;;;;4407137;32;20630;-85
2022/07/10 10:41:38;;;;;;;3.05;1.62;;;;;;;;;;4407146;32;20628;-82
2022/07/10 10:44:13;;;;;;;4.03;1.77;;;;;;;;;;4406555;32;20634;-85
2022/07/10 10:46:50;;;;;;;4.12;1.60;;;;;;;;;;4406787;32;20533;-85
2022/07/10 10:49:18;;;;;;;4.28;1.60;;;;;;;;;;4406585;32;20472;-82
2022/07/10 10:52:10;;;;;;;2.42;1.65;;;;;;;;;;4406568;32;20645;-82
2022/07/10 10:54:57;;;;;;;2.47;1.58;;;;;;;;;;4406955;32;20538;-83
2022/07/10 10:57:50;;;;;;;12.82;2.05;;;;;;;;;;4406456;32;20527;-83
2022/07/10 11:00:33;;;;;;;9.88;1.95;;;;;;;;;;4406510;32;20528;-83
2022/07/10 11:03:23;;;;;;;2.08;1.62;;;;;;;;;;4406231;32;20672;-83
2022/07/10 11:05:50;;;;;;;2.75;1.65;;;;;;;;;;4406145;32;20598;-83
2022/07/10 11:08:37;;;;;;;6.30;1.80;;;;;;;;;;4406042;32;20612;-83
2022/07/10 11:11:42;;;;;;;3.42;1.70;;;;;;;;;;4392556;32;20631;-83
2022/07/10 11:14:09;;;;;;;2.15;1.30;;;;;;;;;;4405629;32;20500;-86
2022/07/10 11:16:35;;;;;;;2.67;1.50;;;;;;;;;;4392148;32;20720;-85
2022/07/10 11:19:02;;;;;;;4.07;2.00;;;;;;;;;;4406081;32;20569;-82
2022/07/10 11:21:33;;;;;;;1.85;1.50;;;;;;;;;;4405917;32;20583;-86
2022/07/10 11:24:15;;;;;;;6.07;1.75;;;;;;;;;;4392157;32;20559;-82
2022/07/10 11:26:59;;;;;;;4.05;1.60;;;;;;;;;;4405885;32;20634;-83
2022/07/10 11:29:25;;;;;;;2.22;1.48;;;;;;;;;;4405924;32;20735;-83
2022/07/10 11:31:54;;;;;;;3.78;1.67;;;;;;;;;;4405877;32;20591;-83
2022/07/10 11:34:22;;;;;;;2.15;1.50;;;;;;;;;;4392084;32;20641;-84
2022/07/10 11:36:48;;;;;;;3.53;1.60;;;;;;;;;;4405757;32;20555;-83
2022/07/10 11:39:14;;;;;;;5.37;1.62;;;;;;;;;;4406089;32;20503;-83
2022/07/10 11:41:45;;;;;;;5.57;1.92;;;;;;;;;;4406007;32;20602;-82
2022/07/10 11:44:19;;;;;;;6.62;1.40;;;;;;;;;;4405474;32;20590;-83
2022/07/10 11:46:48;;;;;;;2.05;1.40;;;;;;;;;;4405876;32;20721;-86
2022/07/10 11:49:15;;;;;;;2.53;1.27;;;;;;;;;;4405645;32;20605;-82
2022/07/10 11:51:42;;;;;;;3.50;1.62;;;;;;;;;;4406135;32;20594;-85
2022/07/10 11:54:15;;;;;;;6.28;1.48;;;;;;;;;;4405511;32;20688;-82
2022/07/10 11:56:47;;;;;;;1.45;1.10;;;;;;;;;;4405802;32;20542;-88
2022/07/10 11:59:14;;;;;;;3.67;1.85;;;;;;;;;;4405535;32;20656;-82
2022/07/10 12:01:45;;;;;;;3.33;1.80;;;;;;;;;;4405373;32;20606;-82
2022/07/10 12:04:12;;;;;;;3.17;1.75;;;;;;;;;;4391400;32;20653;-82
2022/07/10 12:06:40;;;;;;;4.05;1.75;;;;;;;;;;4404105;32;20570;-81
2022/07/10 12:09:10;;;;;;;8.40;1.75;;;;;;;;;;4405053;32;20649;-85
2022/07/10 12:11:36;;;;;;;3.53;2.33;;;;;;;;;;4405389;32;20574;-83
2022/07/10 12:14:22;;;;;;;4.37;1.87;;;;;;;;;;4391488;32;20609;-83
2022/07/10 12:16:54;;;;;;;8.70;3.00;;;;;;;;;;4405060;32;20581;-82
2022/07/10 12:19:27;;;;;;;7.25;1.95;;;;;;;;;;4405561;32;20563;-82
2022/07/10 12:21:53;;;;;;;3.17;1.90;;;;;;;;;;4404890;32;20613;-83
2022/07/10 12:24:20;;;;;;;3.15;1.60;;;;;;;;;;4404969;32;20555;-87
2022/07/10 12:26:47;;;;;;;2.53;1.45;;;;;;;;;;4405292;32;20606;-85
2022/07/10 12:29:22;;;;;;;3.58;1.70;;;;;;;;;;4405065;32;20516;-83
2022/07/10 12:31:50;;;;;;;4.37;1.30;;;;;;;;;;4403716;32;20544;-86
2022/07/10 12:34:17;;;;;;;2.85;1.37;;;;;;;;;;4405420;32;20519;-83
2022/07/10 12:36:53;;;;;;;3.67;1.20;;;;;;;;;;4390648;32;20546;-83
2022/07/10 12:39:25;;;;;;;8.10;1.77;;;;;;;;;;4405408;32;20488;-84
2022/07/10 12:42:04;;;;;;;6.05;1.30;;;;;;;;;;4404763;32;20500;-86
2022/07/10 12:44:36;;;;;;;4.40;1.23;;;;;;;;;;4405342;32;20537;-83
2022/07/10 12:47:11;;;;;;;3.72;1.35;;;;;;;;;;4404860;32;20594;-84
2022/07/10 12:49:49;;;;;;;1.70;1.42;;;;;;;;;;4404918;32;20550;-86
2022/07/10 12:52:24;;;;;;;3.55;1.30;;;;;;;;;;4390903;32;20612;-86
2022/07/10 12:55:13;;;;;;;2.70;1.00;;;;;;;;;;4405250;32;20673;-88
2022/07/10 12:57:58;;;;;;;6.37;1.83;;;;;;;;;;4404545;32;20574;-87
2022/07/10 13:00:34;;;;;;;3.42;1.45;;;;;;;;;;4404073;32;20674;-87
2022/07/10 13:03:08;;;;;;;1.55;1.17;;;;;;;;;;4404619;32;20650;-85
2022/07/10 13:05:38;;;;;;;1.92;1.10;;;;;;;;;;4391414;32;20605;-86
2022/07/10 13:08:22;;;;;;;8.73;1.35;;;;;;;;;;4404958;32;20721;-85
2022/07/10 13:10:58;;;;;;;3.47;1.27;;;;;;;;;;4403671;32;20630;-87
2022/07/10 13:13:25;;;;;;;5.12;1.37;;;;;;;;;;4390980;32;20863;-87
2022/07/10 13:15:54;;;;;;;2.22;1.30;;;;;;;;;;4391091;32;20643;-85
2022/07/10 13:18:25;;;;;;;1.58;1.00;;;;;;;;;;4392066;32;20554;-85
2022/07/10 13:20:55;;;;;;;3.05;1.17;;;;;;;;;;4392233;32;20636;-85
2022/07/10 13:23:25;;;;;;;5.72;1.27;;;;;;;;;;4378893;32;20611;-87
2022/07/10 13:25:52;;;;;;;6.87;1.35;;;;;;;;;;4404632;32;20627;-87
2022/07/10 13:28:19;;;;;;;5.25;1.37;;;;;;;;;;4404489;32;20629;-87
2022/07/10 13:30:45;;;;;;;1.40;1.12;;;;;;;;;;4391678;32;20676;-86
2022/07/10 13:33:12;;;;;;;4.80;1.35;;;;;;;;;;4404591;32;20642;-86
2022/07/10 13:35:38;;;;;;;3.55;1.58;;;;;;;;;;4405108;32;20531;-85
2022/07/10 13:38:05;;;;;;;3.17;1.92;;;;;;;;;;4404420;32;20723;-85
2022/07/10 13:40:33;;;;;;;8.02;1.95;;;;;;;;;;4404555;32;20644;-88
2022/07/10 13:42:59;;;;;;;3.50;1.50;;;;;;;;;;4404269;32;20723;-85
2022/07/10 13:45:29;;;;;;;6.15;1.90;;;;;;;;;;4404765;32;20624;-84
2022/07/10 13:47:57;;;;;;;2.00;1.33;;;;;;;;;;4379124;32;20610;-87
2022/07/10 13:50:24;;;;;;;2.50;1.17;;;;;;;;;;4390772;32;20651;-84
2022/07/10 13:52:50;;;;;;;7.78;2.00;;;;;;;;;;4404125;32;20515;-88
2022/07/10 13:55:19;;;;;;;5.30;1.40;;;;;;;;;;4404048;32;20241;-84
2022/07/10 13:57:45;;;;;;;1.60;1.30;;;;;;;;;;4404406;32;20601;-86
2022/07/10 14:00:11;;;;;;;2.47;1.20;;;;;;;;;;4404304;32;20213;-85
2022/07/10 14:02:37;;;;;;;2.83;1.20;;;;;;;;;;4403867;32;20651;-87
2022/07/10 14:05:07;;;;;;;5.65;1.50;;;;;;;;;;4403884;32;20736;-86
2022/07/10 14:07:33;;;;;;;5.15;1.40;;;;;;;;;;4404406;32;20575;-88
2022/07/10 14:10:01;;;;;;;2.60;1.45;;;;;;;;;;4404508;32;20613;-89
2022/07/10 14:12:27;;;;;;;2.50;1.12;;;;;;;;;;4407019;32;20605;-89
2022/07/10 14:14:54;;;;;;;6.45;1.67;;;;;;;;;;4408976;32;20707;-88
2022/07/10 14:17:20;;;;;;;2.72;1.55;;;;;;;;;;4410625;32;20469;-95
2022/07/10 14:19:46;;;;;;;3.25;1.08;;;;;;;;;;4410850;32;20214;-87
2022/07/10 14:22:12;;;;;;;2.12;1.50;;;;;;;;;;4408992;32;20224;-89
2022/07/10 14:24:38;;;;;;;2.95;1.30;;;;;;;;;;4408516;32;20240;-89
2022/07/10 14:27:04;;;;;;;6.78;1.95;;;;;;;;;;4409476;32;20217;-96
2022/07/10 14:29:30;;;;;;;6.62;1.83;;;;;;;;;;4409265;32;20649;-89
2022/07/10 14:31:57;;;;;;;2.95;2.08;;;;;;;;;;4408194;32;20253;-88
2022/07/10 14:34:28;;;;;;;6.30;1.62;;;;;;;;;;4407365;32;20668;-88
2022/07/10 14:36:54;;;;;;;2.15;1.30;;;;;;;;;;4407981;32;20535;-96
2022/07/10 14:39:19;;;;;;;3.30;2.15;;;;;;;;;;4407638;32;20304;-90
2022/07/10 14:41:45;;;;;;;5.22;2.35;;;;;;;;;;4407755;32;20553;-88
2022/07/10 14:44:11;;;;;;;2.83;1.90;;;;;;;;;;4406572;32;20305;-89
2022/07/10 14:46:37;;;;;;;3.10;1.60;;;;;;;;;;4407402;32;20198;-89
2022/07/10 14:49:03;;;;;;;2.53;1.33;;;;;;;;;;4406712;32;20594;-84
2022/07/10 14:51:29;;;;;;;2.50;1.40;;;;;;;;;;4392962;32;20212;-84
2022/07/10 14:53:56;;;;;;;2.37;1.10;;;;;;;;;;4406493;32;20696;-83
2022/07/10 14:56:22;;;;;;;1.95;1.25;;;;;;;;;;4406813;32;20644;-81